Time;durP1;ratioP1;P1;durP2;ratioP2;P2;SDS_P1;SDS_P2;PMS_P1;PMS_P2;Temp;Humidity;BMP_temperature;BMP_pressure;BME280_temperature;BME280_humidity;BME280_pressure;Samples;Min_cycle;Max_cycle;Signal;HPM_P1;HPM_P2
2022/03/19 00:01:49;;;;;;;7.80;1.70;;;6.50;99.90;;;;;;4997989;28;20046;-54
2022/03/19 00:04:15;;;;;;;12.70;2.78;;;6.50;99.90;;;;;;5010976;28;20573;-55
2022/03/19 00:06:44;;;;;;;12.93;2.22;;;6.50;99.90;;;;;;5009263;28;20080;-51
2022/03/19 00:09:10;;;;;;;10.95;2.30;;;6.40;99.90;;;;;;5011022;28;20418;-52
2022/03/19 00:11:35;;;;;;;10.20;2.33;;;6.40;99.90;;;;;;5000906;28;20034;-55
2022/03/19 00:14:01;;;;;;;16.90;3.23;;;6.40;99.90;;;;;;5010693;28;20144;-51
2022/03/19 00:16:27;;;;;;;10.45;1.92;;;6.40;99.90;;;;;;4999945;28;20038;-52
2022/03/19 00:18:52;;;;;;;14.93;2.83;;;6.40;99.90;;;;;;4996929;28;20038;-55
2022/03/19 00:21:18;;;;;;;12.00;2.57;;;6.30;99.90;;;;;;5011137;28;20534;-53
2022/03/19 00:23:44;;;;;;;15.15;3.42;;;6.30;99.90;;;;;;5006479;28;20393;-54
2022/03/19 00:26:10;;;;;;;10.03;2.30;;;6.20;99.90;;;;;;4991325;28;20046;-52
2022/03/19 00:28:37;;;;;;;13.23;2.00;;;6.20;99.90;;;;;;4991991;28;20400;-53
2022/03/19 00:31:03;;;;;;;;;;;6.10;99.90;;;;;;5010738;28;20415;-52
2022/03/19 00:33:28;;;;;;;11.80;2.22;;;6.10;99.90;;;;;;5009012;28;19932;-52
2022/03/19 00:35:54;;;;;;;10.83;1.90;;;6.10;99.90;;;;;;5009862;28;20038;-53
2022/03/19 00:38:19;;;;;;;13.63;2.33;;;6.10;99.90;;;;;;5009530;28;20136;-51
2022/03/19 00:40:46;;;;;;;14.97;2.47;;;6.00;99.90;;;;;;4991164;28;20041;-53
2022/03/19 00:43:12;;;;;;;12.52;2.92;;;6.00;99.90;;;;;;4990724;28;20478;-52
2022/03/19 00:45:37;;;;;;;12.15;2.80;;;6.00;99.90;;;;;;5010207;28;20084;-52
2022/03/19 00:48:03;;;;;;;16.40;2.67;;;6.00;99.90;;;;;;5010684;28;20077;-52
2022/03/19 00:50:29;;;;;;;11.07;2.45;;;6.00;99.90;;;;;;4992483;28;20042;-52
2022/03/19 00:52:54;;;;;;;18.30;2.77;;;6.00;99.90;;;;;;5003872;28;20038;-54
2022/03/19 00:55:20;;;;;;;14.70;3.27;;;6.00;99.90;;;;;;4991775;28;20043;-51
2022/03/19 00:57:47;;;;;;;12.50;1.97;;;5.90;99.90;;;;;;5002021;28;20514;-52
2022/03/19 01:00:15;;;;;;;;;;;6.00;99.90;;;;;;5010942;28;20053;-52
2022/03/19 01:02:43;;;;;;;14.10;2.95;;;6.00;99.90;;;;;;5008452;28;19995;-52
2022/03/19 01:05:10;;;;;;;14.70;3.20;;;6.00;99.90;;;;;;5003450;28;20034;-51
2022/03/19 01:07:51;;;;;;;13.98;3.55;;;6.00;99.90;;;;;;4992071;28;20045;-54
2022/03/19 01:10:20;;;;;;;21.13;4.00;;;6.00;99.90;;;;;;4992599;28;20043;-52
2022/03/19 01:12:47;;;;;;;10.30;2.30;;;6.00;99.90;;;;;;5009066;28;20049;-52
2022/03/19 01:15:15;;;;;;;12.55;3.42;;;5.90;99.90;;;;;;4997407;28;20049;-53
2022/03/19 01:17:40;;;;;;;11.75;2.75;;;5.90;99.90;;;;;;5006860;28;20095;-55
2022/03/19 01:20:08;;;;;;;14.35;2.90;;;5.90;99.90;;;;;;5005407;28;20495;-53
2022/03/19 01:22:34;;;;;;;18.25;2.75;;;5.90;99.90;;;;;;4991706;28;20140;-53
2022/03/19 01:25:04;;;;;;;10.15;3.03;;;5.90;99.90;;;;;;5004656;28;20096;-53
2022/03/19 01:27:30;;;;;;;14.38;3.03;;;5.90;99.90;;;;;;4997473;28;20104;-52
2022/03/19 01:29:55;;;;;;;12.60;4.20;;;5.90;99.90;;;;;;5007919;28;20222;-53
2022/03/19 01:32:21;;;;;;;11.90;2.40;;;5.90;99.90;;;;;;4990405;28;20121;-52
2022/03/19 01:34:47;;;;;;;13.30;3.23;;;5.90;99.90;;;;;;4992431;28;20117;-51
2022/03/19 01:37:12;;;;;;;21.25;3.72;;;5.90;99.90;;;;;;5007922;28;20038;-52
2022/03/19 01:39:38;;;;;;;20.23;3.67;;;5.90;99.90;;;;;;5008629;28;20034;-53
2022/03/19 01:42:04;;;;;;;16.50;3.55;;;5.80;99.90;;;;;;4993999;28;20038;-52
2022/03/19 01:44:30;;;;;;;13.73;3.22;;;5.80;99.90;;;;;;4994316;28;20042;-55
2022/03/19 01:47:01;;;;;;;16.30;3.10;;;5.70;99.90;;;;;;4996203;28;20521;-53
2022/03/19 01:49:27;;;;;;;12.90;2.90;;;5.80;99.90;;;;;;4995198;28;20496;-51
2022/03/19 01:51:53;;;;;;;9.02;2.97;;;5.70;99.90;;;;;;5007020;28;20054;-51
2022/03/19 01:54:40;;;;;;;11.50;3.85;;;5.70;99.90;;;;;;5003388;28;20130;-51
2022/03/19 01:57:07;;;;;;;14.05;3.38;;;5.70;99.90;;;;;;5003976;28;20104;-53
2022/03/19 01:59:35;;;;;;;15.65;3.17;;;5.60;99.90;;;;;;5006954;28;20514;-52
2022/03/19 02:02:05;;;;;;;22.17;4.32;;;5.60;99.90;;;;;;5006561;28;20046;-51
2022/03/19 02:04:33;;;;;;;16.50;2.88;;;5.60;99.90;;;;;;5009042;28;20121;-51
2022/03/19 02:07:01;;;;;;;16.55;3.70;;;5.60;99.90;;;;;;5007641;28;20037;-51
2022/03/19 02:09:28;;;;;;;12.07;2.53;;;5.50;99.90;;;;;;5011058;28;20100;-52
2022/03/19 02:11:53;;;;;;;11.88;3.17;;;5.60;99.90;;;;;;5001691;28;20039;-51
2022/03/19 02:14:19;;;;;;;15.67;3.40;;;5.50;99.90;;;;;;5003462;28;20113;-55
2022/03/19 02:16:46;;;;;;;19.40;3.03;;;5.50;99.90;;;;;;5001964;28;20484;-51
2022/03/19 02:19:11;;;;;;;13.63;3.83;;;5.50;99.90;;;;;;4993687;28;20085;-52
2022/03/19 02:21:47;;;;;;;12.37;2.90;;;5.50;99.90;;;;;;5003110;28;20069;-51
2022/03/19 02:27:00;;;;;;;13.82;2.90;;;5.40;99.90;;;;;;5001513;28;20050;-51
2022/03/19 02:29:26;;;;;;;16.42;3.47;;;5.40;99.90;;;;;;5011531;28;20054;-52
2022/03/19 02:31:58;;;;;;;18.00;3.55;;;5.40;99.90;;;;;;5019319;28;20049;-52
2022/03/19 02:34:24;;;;;;;14.27;3.13;;;5.40;99.90;;;;;;4993892;28;20053;-54
2022/03/19 02:36:50;;;;;;;17.50;2.78;;;5.40;99.90;;;;;;5000256;28;20431;-52
2022/03/19 02:39:28;;;;;;;15.23;3.13;;;5.40;99.90;;;;;;5013011;28;20034;-55
2022/03/19 02:41:54;;;;;;;11.13;3.22;;;5.40;99.90;;;;;;5002934;28;20052;-51
2022/03/19 02:44:20;;;;;;;15.50;3.65;;;5.40;99.90;;;;;;4992742;28;20415;-52
2022/03/19 02:46:48;;;;;;;10.50;3.10;;;5.30;99.90;;;;;;4998788;28;20121;-52
2022/03/19 02:49:15;;;;;;;15.23;2.97;;;5.30;99.90;;;;;;5012203;28;20053;-51
2022/03/19 02:51:42;;;;;;;11.63;3.00;;;5.30;99.90;;;;;;5010172;28;20109;-51
2022/03/19 02:54:10;;;;;;;12.25;3.33;;;5.30;99.90;;;;;;5011786;28;20045;-51
2022/03/19 02:56:38;;;;;;;12.73;3.70;;;5.30;99.90;;;;;;5002035;28;20221;-51
2022/03/19 02:59:18;;;;;;;9.18;3.03;;;5.20;99.90;;;;;;5004547;28;20030;-51
2022/03/19 03:01:49;;;;;;;15.32;3.55;;;5.20;99.90;;;;;;4992703;28;20050;-53
2022/03/19 03:04:15;;;;;;;17.40;3.55;;;5.20;99.90;;;;;;4993668;28;20065;-53
2022/03/19 03:06:42;;;;;;;14.43;3.38;;;5.20;99.90;;;;;;4996455;28;20507;-54
2022/03/19 03:09:09;;;;;;;13.02;3.60;;;5.10;99.90;;;;;;5011575;28;20042;-54
2022/03/19 03:11:36;;;;;;;16.23;4.38;;;5.10;99.90;;;;;;5003475;28;20038;-53
2022/03/19 03:14:02;;;;;;;14.13;3.63;;;5.10;99.90;;;;;;5009438;28;20044;-54
2022/03/19 03:16:29;;;;;;;18.55;4.25;;;5.10;99.90;;;;;;5010303;28;20388;-54
2022/03/19 03:18:56;;;;;;;7.82;3.05;;;5.10;99.90;;;;;;4992610;28;20461;-55
2022/03/19 03:21:22;;;;;;;15.13;3.25;;;5.00;99.90;;;;;;4992288;28;20050;-54
2022/03/19 03:23:48;;;;;;;20.85;5.43;;;5.00;99.90;;;;;;5007321;28;20041;-52
2022/03/19 03:26:13;;;;;;;21.35;3.58;;;5.00;99.90;;;;;;4994842;28;20497;-52
2022/03/19 03:28:39;;;;;;;11.17;4.10;;;5.00;99.90;;;;;;4998697;28;20040;-52
2022/03/19 03:31:04;;;;;;;13.17;4.33;;;4.90;99.90;;;;;;5005940;28;20116;-53
2022/03/19 03:33:30;;;;;;;12.70;3.57;;;4.90;99.90;;;;;;5004705;28;20038;-52
2022/03/19 03:35:56;;;;;;;10.93;3.47;;;4.90;99.90;;;;;;5009112;28;20034;-52
2022/03/19 03:38:21;;;;;;;16.20;3.57;;;4.90;99.90;;;;;;4996808;28;20030;-53
2022/03/19 03:40:47;;;;;;;17.50;4.00;;;4.90;99.90;;;;;;4991986;28;20129;-51
2022/03/19 03:43:12;;;;;;;11.17;3.97;;;4.90;99.90;;;;;;5002805;28;20542;-51
2022/03/19 03:45:38;;;;;;;16.23;4.13;;;4.80;99.90;;;;;;5009599;28;20427;-51
2022/03/19 03:48:04;;;;;;;18.40;4.60;;;4.80;99.90;;;;;;5003127;28;20041;-53
2022/03/19 03:50:31;;;;;;;13.15;4.18;;;4.80;99.90;;;;;;5011187;28;20517;-52
2022/03/19 03:52:56;;;;;;;;;;;4.80;99.90;;;;;;5002807;28;20121;-51
2022/03/19 03:55:22;;;;;;;16.77;4.65;;;4.80;99.90;;;;;;4993729;28;20005;-52
2022/03/19 03:57:48;;;;;;;19.05;4.38;;;4.80;99.90;;;;;;4996344;28;20414;-52
2022/03/19 04:00:14;;;;;;;16.58;4.95;;;4.70;99.90;;;;;;5008860;28;20042;-53
2022/03/19 04:02:41;;;;;;;23.45;4.75;;;4.80;99.90;;;;;;5004323;28;20088;-51
2022/03/19 04:05:08;;;;;;;13.10;4.45;;;4.70;99.90;;;;;;5004244;28;20529;-52
2022/03/19 04:07:33;;;;;;;14.95;4.50;;;4.70;99.90;;;;;;4998767;28;20035;-53
2022/03/19 04:09:59;;;;;;;19.27;4.80;;;4.60;99.90;;;;;;4993780;28;20125;-51
2022/03/19 04:12:25;;;;;;;18.30;5.63;;;4.60;99.90;;;;;;5000583;28;20042;-55
2022/03/19 04:14:52;;;;;;;14.87;4.80;;;4.60;99.90;;;;;;5002073;28;20038;-55
2022/03/19 04:17:18;;;;;;;18.05;5.03;;;4.60;99.90;;;;;;5008815;28;20360;-52
2022/03/19 04:19:44;;;;;;;16.83;4.78;;;4.60;99.90;;;;;;5009996;28;20078;-51
2022/03/19 04:22:10;;;;;;;15.52;4.57;;;4.60;99.90;;;;;;5009984;28;20077;-52
2022/03/19 04:24:36;;;;;;;15.47;3.83;;;4.60;99.90;;;;;;5005497;28;20077;-55
2022/03/19 04:27:02;;;;;;;18.25;4.63;;;4.60;99.90;;;;;;4992145;28;20049;-51
2022/03/19 04:29:28;;;;;;;13.40;4.35;;;4.60;99.90;;;;;;5006138;28;20042;-53
2022/03/19 04:31:53;;;;;;;15.93;4.23;;;4.60;99.90;;;;;;5003394;28;20439;-52
2022/03/19 04:34:19;;;;;;;11.30;4.53;;;4.60;99.90;;;;;;5008866;28;20272;-54
2022/03/19 04:36:45;;;;;;;15.83;5.43;;;4.60;99.90;;;;;;4991086;28;20297;-51
2022/03/19 04:39:11;;;;;;;21.00;5.43;;;4.60;99.90;;;;;;4992333;28;20038;-52
2022/03/19 04:41:38;;;;;;;10.95;3.83;;;4.60;99.90;;;;;;4994804;28;20091;-53
2022/03/19 04:44:07;;;;;;;13.73;3.65;;;4.60;99.90;;;;;;5009876;28;20065;-51
2022/03/19 04:46:33;;;;;;;20.58;5.85;;;4.50;99.90;;;;;;5006721;28;20125;-51
2022/03/19 04:48:59;;;;;;;17.20;4.22;;;4.50;99.90;;;;;;5005562;28;20511;-51
2022/03/19 04:51:33;;;;;;;18.70;5.07;;;4.50;99.90;;;;;;5009067;28;20052;-53
2022/03/19 04:53:59;;;;;;;19.60;4.80;;;4.50;99.90;;;;;;5000787;28;20038;-51
2022/03/19 04:56:26;;;;;;;;;;;4.50;99.90;;;;;;5009264;28;20046;-51
2022/03/19 04:58:54;;;;;;;17.73;4.78;;;4.50;99.90;;;;;;4999068;28;19924;-51
2022/03/19 05:01:21;;;;;;;12.00;4.10;;;4.50;99.90;;;;;;5008401;28;20113;-52
2022/03/19 05:03:46;;;;;;;17.40;6.03;;;4.50;99.90;;;;;;5003939;28;20313;-51
2022/03/19 05:06:12;;;;;;;11.00;4.53;;;4.50;99.90;;;;;;5010093;28;20406;-52
2022/03/19 05:08:38;;;;;;;14.40;3.97;;;4.40;99.90;;;;;;4994675;28;20435;-51
2022/03/19 05:11:12;;;;;;;15.82;4.80;;;4.40;99.90;;;;;;4992606;28;20047;-51
2022/03/19 05:13:41;;;;;;;14.50;4.50;;;4.40;99.90;;;;;;5007395;28;20120;-53
2022/03/19 05:16:07;;;;;;;12.52;3.63;;;4.40;99.90;;;;;;5011565;28;20042;-52
2022/03/19 05:18:33;;;;;;;16.83;4.63;;;4.40;99.90;;;;;;5010221;28;20416;-52
2022/03/19 05:20:58;;;;;;;19.27;5.23;;;4.30;99.90;;;;;;5012342;28;20050;-51
2022/03/19 05:23:24;;;;;;;13.27;3.87;;;4.30;99.90;;;;;;5002264;28;20508;-52
2022/03/19 05:25:50;;;;;;;15.60;4.93;;;4.30;99.90;;;;;;4994167;28;20082;-52
2022/03/19 05:28:16;;;;;;;13.10;4.85;;;4.30;99.90;;;;;;5003831;28;20125;-53
2022/03/19 05:30:42;;;;;;;12.27;3.47;;;4.30;99.90;;;;;;4999358;28;20125;-55
2022/03/19 05:33:08;;;;;;;12.35;4.50;;;4.20;99.90;;;;;;4994918;28;20158;-52
2022/03/19 05:35:34;;;;;;;16.35;3.10;;;4.20;99.90;;;;;;4993982;28;20109;-52
2022/03/19 05:38:00;;;;;;;19.10;3.35;;;4.20;99.90;;;;;;5000257;28;20034;-54
2022/03/19 05:40:26;;;;;;;12.10;3.78;;;4.20;99.90;;;;;;5008537;28;20034;-53
2022/03/19 05:42:52;;;;;;;;;;;4.20;99.90;;;;;;5012273;28;20053;-51
2022/03/19 05:45:20;;;;;;;15.20;2.80;;;4.20;99.90;;;;;;5001297;28;19932;-51
2022/03/19 05:47:46;;;;;;;17.52;3.63;;;4.20;99.90;;;;;;4993955;28;20054;-52
2022/03/19 05:50:12;;;;;;;13.60;4.00;;;4.20;99.90;;;;;;5004043;28;20112;-54
2022/03/19 05:52:39;;;;;;;16.20;3.95;;;4.20;99.90;;;;;;5011785;28;20034;-52
2022/03/19 05:55:06;;;;;;;13.70;3.42;;;4.20;99.90;;;;;;5003861;28;20038;-51
2022/03/19 05:57:31;;;;;;;12.45;4.13;;;4.20;99.90;;;;;;5011530;28;20485;-51
2022/03/19 05:59:57;;;;;;;11.60;2.83;;;4.30;99.90;;;;;;5008301;28;20124;-55
2022/03/19 06:02:22;;;;;;;13.23;3.50;;;4.30;99.90;;;;;;5003853;28;20522;-51
2022/03/19 06:04:48;;;;;;;9.43;3.27;;;4.40;99.90;;;;;;4999399;28;20510;-53
2022/03/19 06:07:13;;;;;;;12.70;3.67;;;4.60;99.90;;;;;;4995910;28;20404;-55
2022/03/19 06:09:39;;;;;;;9.23;3.40;;;4.80;99.90;;;;;;4994359;28;20392;-52
2022/03/19 06:12:05;;;;;;;22.40;4.20;;;5.00;99.90;;;;;;5000320;28;20045;-52
2022/03/19 06:14:30;;;;;;;14.98;4.57;;;5.30;99.90;;;;;;4994932;28;20041;-52
2022/03/19 06:16:56;;;;;;;6.87;3.43;;;5.50;99.90;;;;;;5007756;28;20048;-51
2022/03/19 06:19:21;;;;;;;12.27;3.87;;;5.80;99.90;;;;;;5009158;28;20057;-51
2022/03/19 06:21:47;;;;;;;13.37;4.13;;;6.10;99.90;;;;;;4999979;28;20046;-52
2022/03/19 06:24:13;;;;;;;10.38;3.40;;;6.40;99.90;;;;;;4994681;28;20057;-51
2022/03/19 06:26:39;;;;;;;11.57;3.73;;;6.70;99.90;;;;;;5003871;28;20121;-55
2022/03/19 06:29:04;;;;;;;16.00;4.60;;;6.90;99.90;;;;;;5012048;28;20045;-54
2022/03/19 06:31:30;;;;;;;10.30;5.13;;;7.20;99.90;;;;;;5003517;28;20049;-52
2022/03/19 06:33:56;;;;;;;13.33;4.90;;;7.40;99.90;;;;;;4998959;28;20097;-55
2022/03/19 06:39:06;;;;;;;12.77;4.55;;;7.80;99.90;;;;;;4993498;28;20077;-52
2022/03/19 06:41:33;;;;;;;6.70;3.07;;;8.10;99.70;;;;;;5000720;28;20456;-51
2022/03/19 06:43:58;;;;;;;8.80;2.65;;;8.40;99.50;;;;;;4999700;28;20367;-52
2022/03/19 06:46:24;;;;;;;13.73;2.67;;;8.70;99.10;;;;;;5010142;28;21454;-51
2022/03/19 06:48:50;;;;;;;11.00;3.53;;;8.90;98.50;;;;;;5010144;28;20041;-52
2022/03/19 06:51:17;;;;;;;14.70;3.47;;;9.00;97.90;;;;;;5004685;28;20539;-54
2022/03/19 06:53:44;;;;;;;12.73;3.30;;;9.00;97.70;;;;;;5006275;28;20046;-56
2022/03/19 06:56:09;;;;;;;17.17;3.17;;;8.80;97.70;;;;;;5004013;28;20058;-54
2022/03/19 06:58:36;;;;;;;8.43;2.97;;;8.70;97.90;;;;;;4992760;28;20073;-53
2022/03/19 07:01:02;;;;;;;10.57;2.83;;;8.60;98.10;;;;;;5005153;28;20738;-52
2022/03/19 07:03:28;;;;;;;17.55;3.78;;;8.50;98.30;;;;;;5010657;28;20042;-54
2022/03/19 07:05:54;;;;;;;21.13;4.38;;;8.40;98.30;;;;;;4994081;28;20062;-54
2022/03/19 07:08:20;;;;;;;19.40;4.67;;;8.20;98.50;;;;;;4993796;28;20035;-51
2022/03/19 07:10:45;;;;;;;17.50;3.33;;;8.20;99.10;;;;;;5002794;28;20042;-53
2022/03/19 07:13:11;;;;;;;19.47;3.53;;;8.10;99.10;;;;;;5009845;28;20042;-57
2022/03/19 07:15:37;;;;;;;16.90;3.70;;;8.00;99.40;;;;;;5003258;28;20285;-56
2022/03/19 07:18:03;;;;;;;10.55;3.58;;;7.90;99.50;;;;;;4993260;28;20570;-53
2022/03/19 07:20:30;;;;;;;18.20;4.05;;;7.90;99.60;;;;;;4998536;28;20046;-53
2022/03/19 07:22:59;;;;;;;13.27;4.07;;;7.90;99.90;;;;;;5011596;28;20151;-54
2022/03/19 07:25:32;;;;;;;12.73;3.67;;;7.90;99.90;;;;;;5006076;28;20118;-54
2022/03/19 07:28:00;;;;;;;15.68;3.47;;;7.90;99.90;;;;;;5011767;28;20034;-52
2022/03/19 07:30:26;;;;;;;11.55;3.72;;;8.00;99.90;;;;;;5006456;28;20093;-53
2022/03/19 07:32:52;;;;;;;13.88;3.80;;;8.00;99.90;;;;;;5001503;28;20043;-53
2022/03/19 07:35:19;;;;;;;12.70;3.30;;;8.10;99.90;;;;;;4991982;28;20043;-55
2022/03/19 07:37:44;;;;;;;;;;;8.10;99.90;;;;;;4998322;28;20042;-52
2022/03/19 07:40:13;;;;;;;15.57;3.80;;;8.10;99.90;;;;;;5011402;28;20271;-52
2022/03/19 07:42:39;;;;;;;19.25;4.47;;;8.10;99.90;;;;;;5009556;28;20046;-52
2022/03/19 07:45:06;;;;;;;13.82;3.35;;;8.10;99.90;;;;;;5005663;28;20455;-52
2022/03/19 07:47:33;;;;;;;13.35;3.95;;;8.00;99.90;;;;;;4997208;28;20046;-52
2022/03/19 07:50:00;;;;;;;15.90;3.92;;;8.00;99.90;;;;;;5011437;28;20048;-52
2022/03/19 07:52:26;;;;;;;;;;;8.00;99.90;;;;;;5009856;28;20069;-52
2022/03/19 07:54:55;;;;;;;16.65;3.85;;;8.00;99.90;;;;;;4991337;28;19918;-52
2022/03/19 07:57:24;;;;;;;18.45;4.82;;;8.10;99.90;;;;;;5010653;28;20156;-52
2022/03/19 07:59:50;;;;;;;19.00;4.63;;;8.10;99.90;;;;;;5002238;28;20499;-52
2022/03/19 08:02:16;;;;;;;;;;;8.20;99.90;;;;;;5002324;28;20486;-52
2022/03/19 08:04:41;;;;;;;11.65;3.47;;;8.20;99.90;;;;;;4991146;28;20429;-52
2022/03/19 08:07:07;;;;;;;13.67;3.60;;;8.30;99.90;;;;;;5007665;28;20045;-53
2022/03/19 08:09:33;;;;;;;14.43;3.40;;;8.30;99.90;;;;;;5011245;28;20300;-52
2022/03/19 08:11:59;;;;;;;12.13;2.53;;;8.40;99.80;;;;;;4997718;28;20140;-54
2022/03/19 08:14:27;;;;;;;15.50;3.80;;;8.40;99.20;;;;;;5010938;28;20038;-54
2022/03/19 08:16:53;;;;;;;10.27;2.78;;;8.40;99.00;;;;;;5005451;28;20025;-55
2022/03/19 08:19:19;;;;;;;9.93;2.40;;;8.50;99.10;;;;;;4996567;28;20053;-52
2022/03/19 08:21:45;;;;;;;14.10;2.92;;;8.50;98.40;;;;;;4997875;28;20033;-51
2022/03/19 08:24:11;;;;;;;17.77;3.60;;;8.60;98.80;;;;;;5007605;28;20038;-52
2022/03/19 08:26:38;;;;;;;13.25;2.90;;;8.70;98.80;;;;;;5003915;28;20413;-54
2022/03/19 08:29:04;;;;;;;14.85;3.90;;;8.70;98.30;;;;;;5010000;28;20485;-52
2022/03/19 08:31:31;;;;;;;12.88;3.17;;;8.80;97.80;;;;;;5005090;28;20049;-55
2022/03/19 08:33:56;;;;;;;16.00;3.30;;;8.80;97.80;;;;;;5010000;28;20041;-53
2022/03/19 08:36:22;;;;;;;18.83;3.50;;;8.80;97.80;;;;;;4996849;28;20396;-53
2022/03/19 08:41:32;;;;;;;20.63;3.55;;;8.90;97.30;;;;;;4993090;28;20050;-53
2022/03/19 08:43:58;;;;;;;13.37;2.57;;;9.00;96.80;;;;;;4997519;28;20038;-52
2022/03/19 08:46:25;;;;;;;10.97;2.20;;;9.00;96.70;;;;;;4999920;28;20128;-52
2022/03/19 08:48:51;;;;;;;11.38;2.05;;;9.00;97.00;;;;;;4994010;28;20049;-51
2022/03/19 08:54:03;;;;;;;13.13;3.10;;;9.20;97.10;;;;;;5002757;28;20281;-53
2022/03/19 08:56:29;;;;;;;14.63;3.25;;;9.30;96.90;;;;;;4997493;28;20133;-53
2022/03/19 08:58:55;;;;;;;7.93;2.83;;;9.40;96.90;;;;;;5005462;28;20038;-54
2022/03/19 09:01:21;;;;;;;15.43;3.47;;;9.40;95.70;;;;;;4992522;28;20043;-52
2022/03/19 09:03:46;;;;;;;18.87;3.73;;;9.50;96.40;;;;;;4996066;28;20277;-52
2022/03/19 09:06:14;;;;;;;13.10;3.50;;;9.60;96.40;;;;;;4992892;28;20042;-53
2022/03/19 09:08:43;;;;;;;10.75;2.75;;;9.70;95.30;;;;;;5002455;28;20331;-53
2022/03/19 09:11:10;;;;;;;11.63;2.42;;;9.70;95.70;;;;;;5008314;28;20042;-53
2022/03/19 09:13:36;;;;;;;9.25;2.60;;;9.80;94.70;;;;;;5009465;28;20026;-55
2022/03/19 09:16:03;;;;;;;14.50;2.05;;;9.80;94.10;;;;;;5007499;28;20113;-52
2022/03/19 09:18:29;;;;;;;6.57;2.33;;;9.90;93.90;;;;;;4994767;28;20431;-52
2022/03/19 09:20:55;;;;;;;10.77;2.42;;;9.90;92.90;;;;;;4989541;28;20050;-55
2022/03/19 09:23:21;;;;;;;11.77;2.50;;;10.00;93.20;;;;;;5008549;28;20049;-53
2022/03/19 09:25:46;;;;;;;12.97;2.43;;;10.10;92.90;;;;;;5004861;28;20089;-53
2022/03/19 09:28:12;;;;;;;11.90;2.23;;;10.20;92.70;;;;;;5006540;28;20042;-54
2022/03/19 09:30:38;;;;;;;8.82;1.73;;;10.30;92.80;;;;;;5009014;28;20499;-54
2022/03/19 09:33:03;;;;;;;10.85;3.17;;;10.40;92.00;;;;;;4995900;28;20031;-57
2022/03/19 09:35:29;;;;;;;19.70;3.63;;;10.50;92.80;;;;;;4990052;28;20385;-53
2022/03/19 09:37:55;;;;;;;9.35;2.00;;;10.50;91.60;;;;;;5008305;28;20415;-56
2022/03/19 09:40:21;;;;;;;17.13;3.30;;;10.60;92.30;;;;;;5009728;28;20033;-52
2022/03/19 09:42:52;;;;;;;12.45;3.60;;;10.60;91.90;;;;;;5005840;28;20071;-54
2022/03/19 09:45:18;;;;;;;14.02;2.03;;;10.80;91.70;;;;;;5009351;28;20103;-55
2022/03/19 09:47:44;;;;;;;20.48;2.47;;;10.90;89.60;;;;;;4996599;28;20308;-56
2022/03/19 09:50:10;;;;;;;25.65;3.50;;;10.90;88.80;;;;;;4990401;28;20205;-53
2022/03/19 09:52:36;;;;;;;11.60;1.97;;;11.00;87.90;;;;;;4999337;28;20048;-57
2022/03/19 09:55:03;;;;;;;;;;;11.00;86.60;;;;;;5002256;28;20404;-53
2022/03/19 09:57:28;;;;;;;9.20;1.17;;;11.10;85.50;;;;;;4997828;28;20398;-57
2022/03/19 09:59:54;;;;;;;8.50;1.20;;;11.10;84.90;;;;;;5000508;28;20261;-56
2022/03/19 10:02:20;;;;;;;10.67;1.73;;;11.20;85.60;;;;;;5000220;28;20046;-55
2022/03/19 10:04:45;;;;;;;7.80;1.85;;;11.30;85.60;;;;;;5013107;28;20052;-52
2022/03/19 10:09:57;;;;;;;12.57;1.77;;;11.40;83.20;;;;;;4994365;28;20122;-53
2022/03/19 10:12:28;;;;;;;10.07;1.75;;;11.40;82.30;;;;;;4996473;28;20045;-54
2022/03/19 10:14:56;;;;;;;7.43;1.27;;;11.50;82.90;;;;;;4993402;28;20042;-52
2022/03/19 10:17:40;;;;;;;10.00;1.48;;;11.50;80.10;;;;;;4996497;28;20034;-53
2022/03/19 10:20:11;;;;;;;10.70;1.02;;;11.60;80.50;;;;;;5011344;28;20042;-53
2022/03/19 10:22:41;;;;;;;8.50;1.30;;;11.60;81.00;;;;;;5010688;28;20046;-52
2022/03/19 10:25:10;;;;;;;10.88;1.55;;;11.70;81.60;;;;;;5012695;28;20495;-53
2022/03/19 10:27:41;;;;;;;16.50;2.72;;;11.80;80.60;;;;;;4998577;28;20129;-57
2022/03/19 10:30:11;;;;;;;12.02;2.13;;;11.80;78.90;;;;;;5009190;28;20152;-58
2022/03/19 10:32:41;;;;;;;5.78;1.80;;;11.90;78.80;;;;;;5010368;28;20526;-55
2022/03/19 10:35:30;;;;;;;7.93;1.42;;;12.00;78.30;;;;;;5011803;28;20491;-56
2022/03/19 10:37:57;;;;;;;11.38;1.85;;;12.10;78.70;;;;;;5002690;28;20494;-53
2022/03/19 10:40:36;;;;;;;7.30;1.00;;;12.20;78.20;;;;;;5010775;28;20065;-58
2022/03/19 10:43:06;;;;;;;176.20;11.18;;;12.20;76.20;;;;;;5011006;28;20072;-57
2022/03/19 10:45:31;;;;;;;19.25;1.85;;;12.30;77.10;;;;;;5011118;28;20478;-58
2022/03/19 10:47:59;;;;;;;7.53;1.40;;;12.40;76.70;;;;;;5003845;28;20085;-57
2022/03/19 10:50:25;;;;;;;8.57;0.90;;;12.40;73.50;;;;;;5009229;28;20564;-58
2022/03/19 10:52:52;;;;;;;4.43;0.83;;;12.40;73.50;;;;;;5010697;28;20037;-56
2022/03/19 10:55:19;;;;;;;6.85;1.30;;;12.50;73.60;;;;;;5011504;28;20491;-54
2022/03/19 10:57:45;;;;;;;3.83;0.70;;;12.70;74.10;;;;;;5010692;28;20033;-53
2022/03/19 11:00:12;;;;;;;6.40;0.85;;;12.70;69.90;;;;;;4998227;28;20038;-56
2022/03/19 11:02:48;;;;;;;4.55;0.50;;;12.80;69.10;;;;;;4993433;28;20034;-56
2022/03/19 11:05:18;;;;;;;5.97;1.17;;;12.80;68.40;;;;;;4992839;28;20046;-56
2022/03/19 11:07:45;;;;;;;2.97;0.50;;;12.80;66.60;;;;;;5000528;28;20404;-58
2022/03/19 11:10:11;;;;;;;7.85;0.93;;;12.80;66.00;;;;;;5000726;28;20061;-57
2022/03/19 11:12:42;;;;;;;3.10;0.75;;;12.90;68.30;;;;;;5005661;28;20464;-57
2022/03/19 11:15:12;;;;;;;6.57;0.70;;;13.00;67.10;;;;;;5007447;28;20038;-56
2022/03/19 11:17:45;;;;;;;3.80;1.67;;;13.00;65.10;;;;;;5011616;28;20056;-57
2022/03/19 11:20:12;;;;;;;4.80;0.60;;;13.00;64.30;;;;;;5009427;28;20084;-53
2022/03/19 11:22:41;;;;;;;3.22;0.70;;;13.10;64.40;;;;;;5001786;28;20042;-56
2022/03/19 11:25:10;;;;;;;5.13;0.80;;;13.10;63.60;;;;;;5006598;28;20060;-55
2022/03/19 11:27:38;;;;;;;1.42;0.55;;;13.20;62.90;;;;;;5005508;28;20042;-54
2022/03/19 11:30:05;;;;;;;3.95;0.90;;;13.20;65.20;;;;;;5008341;28;20542;-55
2022/03/19 11:32:31;;;;;;;4.30;0.43;;;13.30;64.20;;;;;;5004404;28;20092;-57
2022/03/19 11:34:59;;;;;;;4.40;0.40;;;13.30;63.40;;;;;;5009034;28;20388;-56
2022/03/19 11:37:45;;;;;;;4.85;0.70;;;13.40;62.20;;;;;;5011418;28;20041;-56
2022/03/19 11:40:11;;;;;;;1.98;0.60;;;13.40;60.80;;;;;;4995046;28;20030;-55
2022/03/19 11:42:56;;;;;;;2.78;0.52;;;13.50;61.60;;;;;;4991985;28;20042;-54
2022/03/19 11:45:22;;;;;;;3.95;0.50;;;13.60;59.40;;;;;;4993099;28;20061;-56
2022/03/19 11:47:48;;;;;;;2.83;0.68;;;13.70;60.60;;;;;;5007464;28;20042;-56
2022/03/19 11:50:20;;;;;;;1.50;0.40;;;13.70;59.20;;;;;;5005478;28;20042;-55
2022/03/19 11:52:46;;;;;;;7.00;0.55;;;13.80;58.70;;;;;;4991686;28;20038;-57
2022/03/19 11:55:13;;;;;;;7.38;0.65;;;13.80;58.30;;;;;;4991984;28;20034;-54
2022/03/19 11:57:55;;;;;;;;;;;13.80;57.20;;;;;;5010419;28;20046;-56
2022/03/19 12:00:29;;;;;;;1.75;0.30;;;13.80;55.30;;;;;;5005714;28;19924;-57
2022/03/19 12:03:12;;;;;;;2.25;0.40;;;13.80;56.30;;;;;;4992976;28;20051;-57
2022/03/19 12:05:47;;;;;;;3.10;0.20;;;13.80;56.70;;;;;;4992027;28;20056;-56
2022/03/19 12:08:14;;;;;;;2.95;0.30;;;13.80;56.10;;;;;;4991341;28;20038;-56
2022/03/19 12:10:59;;;;;;;1.77;0.32;;;13.70;55.70;;;;;;5000342;28;20041;-57
2022/03/19 12:13:28;;;;;;;3.33;1.00;;;13.80;56.60;;;;;;4991648;28;20133;-56
2022/03/19 12:15:58;;;;;;;3.80;0.20;;;13.80;55.10;;;;;;4990988;28;20182;-56
2022/03/19 12:18:28;;;;;;;1.58;0.20;;;13.80;56.50;;;;;;4991818;28;20050;-56
2022/03/19 12:21:01;;;;;;;1.27;0.20;;;13.90;55.30;;;;;;5006477;28;20045;-54
2022/03/19 12:23:28;;;;;;;1.77;0.55;;;13.90;54.00;;;;;;4991098;28;20061;-55
2022/03/19 12:26:04;;;;;;;0.80;0.20;;;13.80;52.20;;;;;;4990590;28;20129;-57
2022/03/19 12:28:31;;;;;;;1.60;0.30;;;13.80;53.30;;;;;;4992041;28;20105;-59
2022/03/19 12:31:03;;;;;;;;;;;13.70;52.80;;;;;;4991907;28;20049;-59
2022/03/19 12:33:31;;;;;;;2.35;0.50;;;13.70;53.30;;;;;;5008841;28;19921;-58
2022/03/19 12:35:58;;;;;;;2.15;0.20;;;13.60;53.30;;;;;;5005786;28;20085;-58
2022/03/19 12:38:27;;;;;;;1.20;0.40;;;13.70;53.00;;;;;;5008963;28;20121;-58
2022/03/19 12:43:38;;;;;;;2.58;0.40;;;13.70;53.80;;;;;;4991928;28;20042;-60
2022/03/19 12:46:05;;;;;;;1.80;0.40;;;13.60;54.20;;;;;;4994728;28;20042;-60
2022/03/19 12:48:31;;;;;;;2.38;1.05;;;13.70;54.60;;;;;;5008222;28;20041;-55
2022/03/19 12:50:57;;;;;;;2.30;0.30;;;13.80;53.50;;;;;;5024816;28;20419;-60
2022/03/19 12:53:30;;;;;;;1.98;0.35;;;13.70;54.20;;;;;;5008177;28;20069;-60
2022/03/19 12:56:19;;;;;;;1.80;0.30;;;13.80;54.50;;;;;;5004131;28;20052;-59
2022/03/19 12:58:51;;;;;;;4.15;0.65;;;13.80;53.40;;;;;;5008916;28;20030;-57
2022/03/19 13:01:19;;;;;;;1.70;0.30;;;13.80;52.40;;;;;;5009962;28;20042;-59
2022/03/19 13:03:45;;;;;;;2.22;0.50;;;13.80;53.30;;;;;;4994736;28;20121;-57
2022/03/19 13:06:12;;;;;;;4.15;0.75;;;13.90;53.10;;;;;;5007892;28;20084;-58
2022/03/19 13:08:48;;;;;;;4.13;0.50;;;14.00;54.40;;;;;;5008590;28;20045;-56